sensor_id;sensor_type;location;lat;lon;timestamp;P1;durP1;ratioP1;P2;durP2;ratioP2
60432;SDS011;46286;48.098;11.590;2022-08-19T00:00:45;11.38;;;6.55;;
60432;SDS011;46286;48.098;11.590;2022-08-19T00:03:11;9.98;;;6.05;;
60432;SDS011;46286;48.098;11.590;2022-08-19T00:05:37;9.57;;;6.22;;
60432;SDS011;46286;48.098;11.590;2022-08-19T00:08:02;9.90;;;6.03;;
60432;SDS011;46286;48.098;11.590;2022-08-19T00:10:28;9.02;;;5.63;;
60432;SDS011;46286;48.098;11.590;2022-08-19T00:12:53;8.57;;;5.70;;
60432;SDS011;46286;48.098;11.590;2022-08-19T00:15:20;8.10;;;6.07;;
60432;SDS011;46286;48.098;11.590;2022-08-19T00:17:47;8.98;;;5.82;;
60432;SDS011;46286;48.098;11.590;2022-08-19T00:20:15;8.52;;;5.82;;
60432;SDS011;46286;48.098;11.590;2022-08-19T00:22:43;10.50;;;6.78;;
60432;SDS011;46286;48.098;11.590;2022-08-19T00:25:10;8.65;;;5.97;;
60432;SDS011;46286;48.098;11.590;2022-08-19T00:27:36;12.98;;;6.40;;
60432;SDS011;46286;48.098;11.590;2022-08-19T00:30:03;10.80;;;6.57;;
60432;SDS011;46286;48.098;11.590;2022-08-19T00:32:30;9.77;;;6.07;;
60432;SDS011;46286;48.098;11.590;2022-08-19T00:34:56;10.15;;;6.32;;
60432;SDS011;46286;48.098;11.590;2022-08-19T00:37:22;10.25;;;6.68;;
60432;SDS011;46286;48.098;11.590;2022-08-19T00:39:50;9.05;;;6.05;;
60432;SDS011;46286;48.098;11.590;2022-08-19T00:42:18;10.93;;;7.00;;
60432;SDS011;46286;48.098;11.590;2022-08-19T00:44:45;9.82;;;6.35;;
60432;SDS011;46286;48.098;11.590;2022-08-19T00:47:10;10.63;;;6.63;;
60432;SDS011;46286;48.098;11.590;2022-08-19T00:49:41;11.18;;;6.90;;
60432;SDS011;46286;48.098;11.590;2022-08-19T00:52:17;12.52;;;7.03;;
60432;SDS011;46286;48.098;11.590;2022-08-19T00:54:55;11.93;;;7.22;;
60432;SDS011;46286;48.098;11.590;2022-08-19T00:57:44;15.55;;;7.10;;
60432;SDS011;46286;48.098;11.590;2022-08-19T01:00:11;11.68;;;7.13;;
60432;SDS011;46286;48.098;11.590;2022-08-19T01:02:40;12.27;;;7.43;;
60432;SDS011;46286;48.098;11.590;2022-08-19T01:05:08;10.32;;;6.97;;
60432;SDS011;46286;48.098;11.590;2022-08-19T01:07:37;12.30;;;6.97;;
60432;SDS011;46286;48.098;11.590;2022-08-19T01:10:05;12.73;;;7.75;;
60432;SDS011;46286;48.098;11.590;2022-08-19T01:12:33;12.45;;;7.40;;
60432;SDS011;46286;48.098;11.590;2022-08-19T01:14:59;13.93;;;7.40;;
60432;SDS011;46286;48.098;11.590;2022-08-19T01:17:25;11.75;;;7.53;;
60432;SDS011;46286;48.098;11.590;2022-08-19T01:19:52;12.88;;;7.95;;
60432;SDS011;46286;48.098;11.590;2022-08-19T01:24:49;12.20;;;7.45;;
60432;SDS011;46286;48.098;11.590;2022-08-19T01:27:16;13.57;;;8.30;;
60432;SDS011;46286;48.098;11.590;2022-08-19T01:29:42;13.45;;;8.30;;
60432;SDS011;46286;48.098;11.590;2022-08-19T01:32:11;12.10;;;7.57;;
60432;SDS011;46286;48.098;11.590;2022-08-19T01:34:39;14.57;;;8.40;;
60432;SDS011;46286;48.098;11.590;2022-08-19T01:37:07;11.85;;;7.70;;
60432;SDS011;46286;48.098;11.590;2022-08-19T01:39:36;13.27;;;8.07;;
60432;SDS011;46286;48.098;11.590;2022-08-19T01:42:03;13.65;;;7.97;;
60432;SDS011;46286;48.098;11.590;2022-08-19T01:44:29;11.95;;;7.57;;
60432;SDS011;46286;48.098;11.590;2022-08-19T01:46:55;12.57;;;7.72;;
60432;SDS011;46286;48.098;11.590;2022-08-19T01:49:21;11.52;;;7.50;;
60432;SDS011;46286;48.098;11.590;2022-08-19T01:51:49;11.73;;;7.00;;
60432;SDS011;46286;48.098;11.590;2022-08-19T01:54:16;12.27;;;7.20;;
60432;SDS011;46286;48.098;11.590;2022-08-19T01:56:43;12.68;;;7.15;;
60432;SDS011;46286;48.098;11.590;2022-08-19T01:59:10;11.07;;;7.20;;
60432;SDS011;46286;48.098;11.590;2022-08-19T02:01:39;11.52;;;7.07;;
60432;SDS011;46286;48.098;11.590;2022-08-19T02:04:05;12.38;;;7.50;;
60432;SDS011;46286;48.098;11.590;2022-08-19T02:06:31;12.43;;;7.30;;
60432;SDS011;46286;48.098;11.590;2022-08-19T02:08:57;12.63;;;7.50;;
60432;SDS011;46286;48.098;11.590;2022-08-19T02:11:25;10.38;;;6.82;;
60432;SDS011;46286;48.098;11.590;2022-08-19T02:13:53;11.93;;;6.32;;
60432;SDS011;46286;48.098;11.590;2022-08-19T02:16:19;11.68;;;6.85;;
60432;SDS011;46286;48.098;11.590;2022-08-19T02:18:45;12.23;;;6.82;;
60432;SDS011;46286;48.098;11.590;2022-08-19T02:21:14;10.95;;;6.45;;
60432;SDS011;46286;48.098;11.590;2022-08-19T02:23:42;10.48;;;6.22;;
60432;SDS011;46286;48.098;11.590;2022-08-19T02:26:07;10.13;;;6.78;;
60432;SDS011;46286;48.098;11.590;2022-08-19T02:28:34;10.13;;;6.82;;
60432;SDS011;46286;48.098;11.590;2022-08-19T02:30:59;10.32;;;6.22;;
60432;SDS011;46286;48.098;11.590;2022-08-19T02:33:26;8.85;;;6.22;;
60432;SDS011;46286;48.098;11.590;2022-08-19T02:35:52;9.80;;;5.93;;
60432;SDS011;46286;48.098;11.590;2022-08-19T02:38:17;9.85;;;6.10;;
60432;SDS011;46286;48.098;11.590;2022-08-19T02:40:56;9.57;;;6.25;;
60432;SDS011;46286;48.098;11.590;2022-08-19T02:43:23;11.10;;;5.63;;
60432;SDS011;46286;48.098;11.590;2022-08-19T02:45:51;10.70;;;5.82;;
60432;SDS011;46286;48.098;11.590;2022-08-19T02:48:20;8.55;;;5.85;;
60432;SDS011;46286;48.098;11.590;2022-08-19T02:50:49;9.80;;;6.00;;
60432;SDS011;46286;48.098;11.590;2022-08-19T02:53:21;8.65;;;5.68;;
60432;SDS011;46286;48.098;11.590;2022-08-19T02:55:48;10.90;;;6.10;;
60432;SDS011;46286;48.098;11.590;2022-08-19T02:58:15;11.20;;;5.55;;
60432;SDS011;46286;48.098;11.590;2022-08-19T03:00:41;9.25;;;6.05;;
60432;SDS011;46286;48.098;11.590;2022-08-19T03:03:12;8.32;;;5.78;;
60432;SDS011;46286;48.098;11.590;2022-08-19T03:05:37;8.70;;;5.85;;
60432;SDS011;46286;48.098;11.590;2022-08-19T03:08:03;9.57;;;6.28;;
60432;SDS011;46286;48.098;11.590;2022-08-19T03:10:29;9.05;;;5.95;;
60432;SDS011;46286;48.098;11.590;2022-08-19T03:12:54;9.70;;;7.05;;
60432;SDS011;46286;48.098;11.590;2022-08-19T03:15:20;11.57;;;6.88;;
60432;SDS011;46286;48.098;11.590;2022-08-19T03:17:45;10.30;;;5.95;;
60432;SDS011;46286;48.098;11.590;2022-08-19T03:20:11;10.27;;;6.38;;
60432;SDS011;46286;48.098;11.590;2022-08-19T03:22:36;9.35;;;6.15;;
60432;SDS011;46286;48.098;11.590;2022-08-19T03:25:02;9.13;;;5.93;;
60432;SDS011;46286;48.098;11.590;2022-08-19T03:27:29;11.40;;;6.72;;
60432;SDS011;46286;48.098;11.590;2022-08-19T03:29:54;10.35;;;6.32;;
60432;SDS011;46286;48.098;11.590;2022-08-19T03:32:20;11.63;;;6.35;;
60432;SDS011;46286;48.098;11.590;2022-08-19T03:34:46;9.90;;;6.28;;
60432;SDS011;46286;48.098;11.590;2022-08-19T03:37:12;9.43;;;6.05;;
60432;SDS011;46286;48.098;11.590;2022-08-19T03:39:38;10.38;;;6.38;;
60432;SDS011;46286;48.098;11.590;2022-08-19T03:42:04;9.27;;;6.03;;
60432;SDS011;46286;48.098;11.590;2022-08-19T03:44:30;9.93;;;6.25;;
60432;SDS011;46286;48.098;11.590;2022-08-19T03:46:58;10.13;;;6.38;;
60432;SDS011;46286;48.098;11.590;2022-08-19T03:49:25;11.95;;;6.53;;
60432;SDS011;46286;48.098;11.590;2022-08-19T03:51:53;8.85;;;6.00;;
60432;SDS011;46286;48.098;11.590;2022-08-19T03:54:21;11.63;;;6.32;;
60432;SDS011;46286;48.098;11.590;2022-08-19T03:56:48;9.02;;;6.00;;
60432;SDS011;46286;48.098;11.590;2022-08-19T03:59:18;11.18;;;6.40;;
60432;SDS011;46286;48.098;11.590;2022-08-19T04:01:46;10.07;;;5.95;;
60432;SDS011;46286;48.098;11.590;2022-08-19T04:04:11;9.43;;;5.97;;
60432;SDS011;46286;48.098;11.590;2022-08-19T04:06:37;11.00;;;6.25;;
60432;SDS011;46286;48.098;11.590;2022-08-19T04:09:05;9.23;;;5.97;;
60432;SDS011;46286;48.098;11.590;2022-08-19T04:11:34;8.93;;;6.05;;
60432;SDS011;46286;48.098;11.590;2022-08-19T04:16:34;9.70;;;6.00;;
60432;SDS011;46286;48.098;11.590;2022-08-19T04:19:00;8.77;;;5.50;;
60432;SDS011;46286;48.098;11.590;2022-08-19T04:21:27;8.13;;;5.60;;
60432;SDS011;46286;48.098;11.590;2022-08-19T04:23:54;9.73;;;6.05;;
60432;SDS011;46286;48.098;11.590;2022-08-19T04:26:21;10.57;;;5.78;;
60432;SDS011;46286;48.098;11.590;2022-08-19T04:28:50;11.38;;;6.32;;
60432;SDS011;46286;48.098;11.590;2022-08-19T04:31:20;8.57;;;5.70;;
60432;SDS011;46286;48.098;11.590;2022-08-19T04:33:55;9.35;;;5.90;;
60432;SDS011;46286;48.098;11.590;2022-08-19T04:36:23;11.05;;;5.80;;
60432;SDS011;46286;48.098;11.590;2022-08-19T04:38:54;8.88;;;5.82;;
60432;SDS011;46286;48.098;11.590;2022-08-19T04:41:20;10.68;;;5.68;;
60432;SDS011;46286;48.098;11.590;2022-08-19T04:44:06;9.70;;;5.85;;
60432;SDS011;46286;48.098;11.590;2022-08-19T04:46:32;9.70;;;6.15;;
60432;SDS011;46286;48.098;11.590;2022-08-19T04:48:59;10.93;;;5.85;;
60432;SDS011;46286;48.098;11.590;2022-08-19T04:51:25;12.55;;;5.70;;
60432;SDS011;46286;48.098;11.590;2022-08-19T04:53:51;8.27;;;5.55;;
60432;SDS011;46286;48.098;11.590;2022-08-19T04:56:18;8.70;;;5.45;;
60432;SDS011;46286;48.098;11.590;2022-08-19T04:58:47;9.52;;;5.63;;
60432;SDS011;46286;48.098;11.590;2022-08-19T05:01:25;8.98;;;5.05;;
60432;SDS011;46286;48.098;11.590;2022-08-19T05:03:53;8.88;;;5.53;;
60432;SDS011;46286;48.098;11.590;2022-08-19T05:06:20;8.80;;;5.35;;
60432;SDS011;46286;48.098;11.590;2022-08-19T05:08:47;8.68;;;5.00;;
60432;SDS011;46286;48.098;11.590;2022-08-19T05:11:17;8.30;;;5.50;;
60432;SDS011;46286;48.098;11.590;2022-08-19T05:13:45;10.68;;;5.47;;
60432;SDS011;46286;48.098;11.590;2022-08-19T05:16:12;10.25;;;5.30;;
60432;SDS011;46286;48.098;11.590;2022-08-19T05:18:39;7.90;;;5.28;;
60432;SDS011;46286;48.098;11.590;2022-08-19T05:21:24;8.60;;;5.10;;
60432;SDS011;46286;48.098;11.590;2022-08-19T05:24:09;7.60;;;5.07;;
60432;SDS011;46286;48.098;11.590;2022-08-19T05:26:35;8.35;;;5.60;;
60432;SDS011;46286;48.098;11.590;2022-08-19T05:29:02;7.40;;;5.05;;
60432;SDS011;46286;48.098;11.590;2022-08-19T05:31:28;7.47;;;4.95;;
60432;SDS011;46286;48.098;11.590;2022-08-19T05:33:54;8.85;;;5.25;;
60432;SDS011;46286;48.098;11.590;2022-08-19T05:36:20;9.82;;;5.30;;
60432;SDS011;46286;48.098;11.590;2022-08-19T05:38:46;8.15;;;5.55;;
60432;SDS011;46286;48.098;11.590;2022-08-19T05:41:13;9.68;;;5.65;;
60432;SDS011;46286;48.098;11.590;2022-08-19T05:43:40;8.70;;;6.22;;
60432;SDS011;46286;48.098;11.590;2022-08-19T05:46:06;11.00;;;6.30;;
60432;SDS011;46286;48.098;11.590;2022-08-19T05:48:32;10.60;;;6.20;;
60432;SDS011;46286;48.098;11.590;2022-08-19T05:51:03;10.65;;;6.47;;
60432;SDS011;46286;48.098;11.590;2022-08-19T05:53:33;11.00;;;6.40;;
60432;SDS011;46286;48.098;11.590;2022-08-19T05:56:03;11.63;;;7.25;;
60432;SDS011;46286;48.098;11.590;2022-08-19T05:58:33;11.68;;;7.20;;
60432;SDS011;46286;48.098;11.590;2022-08-19T06:01:00;12.18;;;7.20;;
60432;SDS011;46286;48.098;11.590;2022-08-19T06:03:31;14.75;;;8.55;;
60432;SDS011;46286;48.098;11.590;2022-08-19T06:05:58;11.20;;;7.25;;
60432;SDS011;46286;48.098;11.590;2022-08-19T06:08:25;13.73;;;7.65;;
60432;SDS011;46286;48.098;11.590;2022-08-19T06:10:52;16.63;;;8.73;;
60432;SDS011;46286;48.098;11.590;2022-08-19T06:13:17;13.57;;;8.75;;
60432;SDS011;46286;48.098;11.590;2022-08-19T06:15:44;13.13;;;8.30;;
60432;SDS011;46286;48.098;11.590;2022-08-19T06:18:12;15.18;;;8.57;;
60432;SDS011;46286;48.098;11.590;2022-08-19T06:20:39;14.85;;;8.80;;
60432;SDS011;46286;48.098;11.590;2022-08-19T06:23:06;15.27;;;8.77;;
60432;SDS011;46286;48.098;11.590;2022-08-19T06:25:32;13.50;;;8.63;;
60432;SDS011;46286;48.098;11.590;2022-08-19T06:27:57;14.82;;;8.90;;
60432;SDS011;46286;48.098;11.590;2022-08-19T06:30:23;17.08;;;9.25;;
60432;SDS011;46286;48.098;11.590;2022-08-19T06:32:48;16.55;;;9.35;;
60432;SDS011;46286;48.098;11.590;2022-08-19T06:35:14;18.30;;;9.25;;
60432;SDS011;46286;48.098;11.590;2022-08-19T06:37:39;15.60;;;9.02;;
60432;SDS011;46286;48.098;11.590;2022-08-19T06:40:05;17.20;;;9.88;;
60432;SDS011;46286;48.098;11.590;2022-08-19T06:42:34;22.73;;;10.45;;
60432;SDS011;46286;48.098;11.590;2022-08-19T06:45:00;17.17;;;10.40;;
60432;SDS011;46286;48.098;11.590;2022-08-19T06:47:29;17.83;;;10.30;;
60432;SDS011;46286;48.098;11.590;2022-08-19T06:49:56;16.98;;;10.93;;
60432;SDS011;46286;48.098;11.590;2022-08-19T06:52:27;21.02;;;11.70;;
60432;SDS011;46286;48.098;11.590;2022-08-19T06:54:52;22.35;;;11.25;;
60432;SDS011;46286;48.098;11.590;2022-08-19T06:57:19;23.25;;;12.30;;
60432;SDS011;46286;48.098;11.590;2022-08-19T06:59:45;22.58;;;12.70;;
60432;SDS011;46286;48.098;11.590;2022-08-19T07:02:10;22.00;;;12.15;;
60432;SDS011;46286;48.098;11.590;2022-08-19T07:04:36;26.42;;;13.90;;
60432;SDS011;46286;48.098;11.590;2022-08-19T07:07:07;26.65;;;14.18;;
60432;SDS011;46286;48.098;11.590;2022-08-19T07:09:35;28.25;;;14.20;;
60432;SDS011;46286;48.098;11.590;2022-08-19T07:12:04;23.27;;;13.88;;
60432;SDS011;46286;48.098;11.590;2022-08-19T07:14:32;24.63;;;13.57;;
60432;SDS011;46286;48.098;11.590;2022-08-19T07:17:02;23.42;;;13.68;;
60432;SDS011;46286;48.098;11.590;2022-08-19T07:19:29;24.52;;;13.75;;
60432;SDS011;46286;48.098;11.590;2022-08-19T07:21:55;22.92;;;13.40;;
60432;SDS011;46286;48.098;11.590;2022-08-19T07:24:24;29.05;;;15.65;;
60432;SDS011;46286;48.098;11.590;2022-08-19T07:26:53;26.27;;;15.35;;
60432;SDS011;46286;48.098;11.590;2022-08-19T07:29:22;26.80;;;15.32;;
60432;SDS011;46286;48.098;11.590;2022-08-19T07:31:50;25.55;;;14.90;;
60432;SDS011;46286;48.098;11.590;2022-08-19T07:34:16;24.67;;;14.30;;
60432;SDS011;46286;48.098;11.590;2022-08-19T07:36:42;26.33;;;14.88;;
60432;SDS011;46286;48.098;11.590;2022-08-19T07:39:10;25.48;;;14.95;;
60432;SDS011;46286;48.098;11.590;2022-08-19T07:41:41;27.13;;;14.98;;
60432;SDS011;46286;48.098;11.590;2022-08-19T07:44:08;24.85;;;14.18;;
60432;SDS011;46286;48.098;11.590;2022-08-19T07:46:35;25.33;;;14.65;;
60432;SDS011;46286;48.098;11.590;2022-08-19T07:49:03;24.60;;;14.70;;
60432;SDS011;46286;48.098;11.590;2022-08-19T07:51:29;26.30;;;15.70;;
60432;SDS011;46286;48.098;11.590;2022-08-19T07:53:54;24.60;;;14.38;;
60432;SDS011;46286;48.098;11.590;2022-08-19T07:56:21;29.17;;;15.60;;
60432;SDS011;46286;48.098;11.590;2022-08-19T07:58:47;27.33;;;15.75;;
60432;SDS011;46286;48.098;11.590;2022-08-19T08:01:16;29.50;;;15.60;;
60432;SDS011;46286;48.098;11.590;2022-08-19T08:03:44;30.77;;;16.65;;
60432;SDS011;46286;48.098;11.590;2022-08-19T08:06:29;28.15;;;15.55;;
60432;SDS011;46286;48.098;11.590;2022-08-19T08:09:14;30.93;;;16.40;;
60432;SDS011;46286;48.098;11.590;2022-08-19T08:11:44;26.00;;;16.17;;
60432;SDS011;46286;48.098;11.590;2022-08-19T08:14:14;28.90;;;16.85;;
60432;SDS011;46286;48.098;11.590;2022-08-19T08:16:45;31.75;;;16.90;;
60432;SDS011;46286;48.098;11.590;2022-08-19T08:19:11;31.33;;;17.98;;
60432;SDS011;46286;48.098;11.590;2022-08-19T08:21:40;32.08;;;18.40;;
60432;SDS011;46286;48.098;11.590;2022-08-19T08:24:06;32.42;;;17.63;;
60432;SDS011;46286;48.098;11.590;2022-08-19T08:26:32;30.80;;;17.10;;
60432;SDS011;46286;48.098;11.590;2022-08-19T08:28:58;35.40;;;17.83;;
60432;SDS011;46286;48.098;11.590;2022-08-19T08:31:23;26.67;;;15.93;;
60432;SDS011;46286;48.098;11.590;2022-08-19T08:33:49;32.30;;;17.30;;
60432;SDS011;46286;48.098;11.590;2022-08-19T08:36:14;30.75;;;15.88;;
60432;SDS011;46286;48.098;11.590;2022-08-19T08:38:41;29.95;;;17.50;;
60432;SDS011;46286;48.098;11.590;2022-08-19T08:43:47;27.13;;;15.50;;
60432;SDS011;46286;48.098;11.590;2022-08-19T08:46:59;31.33;;;16.15;;
60432;SDS011;46286;48.098;11.590;2022-08-19T08:52:05;31.25;;;17.30;;
60432;SDS011;46286;48.098;11.590;2022-08-19T08:54:55;31.40;;;17.75;;
60432;SDS011;46286;48.098;11.590;2022-08-19T08:57:45;31.00;;;17.27;;
60432;SDS011;46286;48.098;11.590;2022-08-19T09:00:17;33.63;;;17.70;;
60432;SDS011;46286;48.098;11.590;2022-08-19T09:02:46;29.45;;;16.73;;
60432;SDS011;46286;48.098;11.590;2022-08-19T09:05:11;34.53;;;17.20;;
60432;SDS011;46286;48.098;11.590;2022-08-19T09:08:15;31.05;;;17.02;;
60432;SDS011;46286;48.098;11.590;2022-08-19T09:10:36;32.20;;;17.10;;
60432;SDS011;46286;48.098;11.590;2022-08-19T09:15:45;36.30;;;17.70;;
60432;SDS011;46286;48.098;11.590;2022-08-19T09:18:16;37.55;;;18.38;;
60432;SDS011;46286;48.098;11.590;2022-08-19T09:20:42;36.45;;;18.73;;
60432;SDS011;46286;48.098;11.590;2022-08-19T09:23:07;34.15;;;18.25;;
60432;SDS011;46286;48.098;11.590;2022-08-19T09:25:35;31.10;;;16.65;;
60432;SDS011;46286;48.098;11.590;2022-08-19T09:28:01;36.63;;;17.17;;
60432;SDS011;46286;48.098;11.590;2022-08-19T09:30:29;34.10;;;17.80;;
60432;SDS011;46286;48.098;11.590;2022-08-19T09:32:57;31.95;;;17.67;;
60432;SDS011;46286;48.098;11.590;2022-08-19T09:35:25;33.75;;;18.13;;
60432;SDS011;46286;48.098;11.590;2022-08-19T09:37:53;35.83;;;17.77;;
60432;SDS011;46286;48.098;11.590;2022-08-19T09:40:19;27.77;;;16.58;;
60432;SDS011;46286;48.098;11.590;2022-08-19T09:42:45;29.55;;;15.80;;
60432;SDS011;46286;48.098;11.590;2022-08-19T09:45:12;29.40;;;16.27;;
60432;SDS011;46286;48.098;11.590;2022-08-19T09:47:45;32.78;;;16.10;;
60432;SDS011;46286;48.098;11.590;2022-08-19T09:50:11;30.38;;;17.40;;
60432;SDS011;46286;48.098;11.590;2022-08-19T09:52:38;26.52;;;15.85;;
60432;SDS011;46286;48.098;11.590;2022-08-19T09:55:04;32.88;;;16.73;;
60432;SDS011;46286;48.098;11.590;2022-08-19T09:57:31;28.70;;;15.88;;
60432;SDS011;46286;48.098;11.590;2022-08-19T09:59:56;31.67;;;16.17;;
60432;SDS011;46286;48.098;11.590;2022-08-19T10:02:22;32.47;;;16.35;;
60432;SDS011;46286;48.098;11.590;2022-08-19T10:04:47;27.08;;;15.30;;
60432;SDS011;46286;48.098;11.590;2022-08-19T10:07:32;27.63;;;14.77;;
60432;SDS011;46286;48.098;11.590;2022-08-19T10:09:57;30.73;;;16.27;;
60432;SDS011;46286;48.098;11.590;2022-08-19T10:12:23;29.45;;;15.90;;
60432;SDS011;46286;48.098;11.590;2022-08-19T10:14:48;31.73;;;16.38;;
60432;SDS011;46286;48.098;11.590;2022-08-19T10:17:16;30.40;;;15.95;;
60432;SDS011;46286;48.098;11.590;2022-08-19T10:19:42;32.78;;;17.10;;
60432;SDS011;46286;48.098;11.590;2022-08-19T10:22:08;33.13;;;16.67;;
60432;SDS011;46286;48.098;11.590;2022-08-19T10:24:36;28.45;;;15.52;;
60432;SDS011;46286;48.098;11.590;2022-08-19T10:27:01;27.25;;;14.88;;
60432;SDS011;46286;48.098;11.590;2022-08-19T10:29:31;32.55;;;16.90;;
60432;SDS011;46286;48.098;11.590;2022-08-19T10:31:57;29.70;;;16.45;;
60432;SDS011;46286;48.098;11.590;2022-08-19T10:34:25;35.13;;;16.48;;
60432;SDS011;46286;48.098;11.590;2022-08-19T10:36:51;29.48;;;15.68;;
60432;SDS011;46286;48.098;11.590;2022-08-19T10:39:16;28.15;;;15.68;;
60432;SDS011;46286;48.098;11.590;2022-08-19T10:41:42;23.23;;;13.02;;
60432;SDS011;46286;48.098;11.590;2022-08-19T10:44:09;24.10;;;13.50;;
60432;SDS011;46286;48.098;11.590;2022-08-19T10:46:37;24.00;;;13.00;;
60432;SDS011;46286;48.098;11.590;2022-08-19T10:49:07;20.02;;;11.50;;
60432;SDS011;46286;48.098;11.590;2022-08-19T10:51:34;18.33;;;11.38;;
60432;SDS011;46286;48.098;11.590;2022-08-19T10:56:45;25.58;;;11.23;;
60432;SDS011;46286;48.098;11.590;2022-08-19T10:59:21;17.52;;;10.75;;
60432;SDS011;46286;48.098;11.590;2022-08-19T11:01:49;13.88;;;9.35;;
60432;SDS011;46286;48.098;11.590;2022-08-19T11:04:16;15.35;;;9.00;;
60432;SDS011;46286;48.098;11.590;2022-08-19T11:06:43;14.02;;;9.10;;
60432;SDS011;46286;48.098;11.590;2022-08-19T11:09:20;14.63;;;9.00;;
60432;SDS011;46286;48.098;11.590;2022-08-19T11:11:49;13.30;;;9.05;;
60432;SDS011;46286;48.098;11.590;2022-08-19T11:14:16;14.35;;;7.70;;
60432;SDS011;46286;48.098;11.590;2022-08-19T11:16:44;12.40;;;7.72;;
60432;SDS011;46286;48.098;11.590;2022-08-19T11:19:11;13.13;;;7.85;;
60432;SDS011;46286;48.098;11.590;2022-08-19T11:21:39;11.23;;;8.15;;
60432;SDS011;46286;48.098;11.590;2022-08-19T11:24:08;11.30;;;7.93;;
60432;SDS011;46286;48.098;11.590;2022-08-19T11:26:36;11.05;;;7.80;;
60432;SDS011;46286;48.098;11.590;2022-08-19T11:29:03;10.82;;;7.35;;
60432;SDS011;46286;48.098;11.590;2022-08-19T11:31:30;11.02;;;7.13;;
60432;SDS011;46286;48.098;11.590;2022-08-19T11:33:57;10.35;;;6.90;;
60432;SDS011;46286;48.098;11.590;2022-08-19T11:36:24;11.35;;;7.47;;
60432;SDS011;46286;48.098;11.590;2022-08-19T11:38:51;11.18;;;7.28;;
60432;SDS011;46286;48.098;11.590;2022-08-19T11:41:18;13.85;;;8.75;;
60432;SDS011;46286;48.098;11.590;2022-08-19T11:43:45;13.38;;;9.15;;
60432;SDS011;46286;48.098;11.590;2022-08-19T11:46:11;13.30;;;9.30;;
60432;SDS011;46286;48.098;11.590;2022-08-19T11:48:39;16.45;;;10.50;;
60432;SDS011;46286;48.098;11.590;2022-08-19T11:51:06;16.80;;;9.80;;
60432;SDS011;46286;48.098;11.590;2022-08-19T11:53:37;13.63;;;9.30;;
60432;SDS011;46286;48.098;11.590;2022-08-19T11:56:03;12.73;;;7.68;;
60432;SDS011;46286;48.098;11.590;2022-08-19T11:58:30;11.75;;;7.45;;
60432;SDS011;46286;48.098;11.590;2022-08-19T12:00:56;12.10;;;7.40;;
60432;SDS011;46286;48.098;11.590;2022-08-19T12:03:22;12.38;;;7.63;;
60432;SDS011;46286;48.098;11.590;2022-08-19T12:05:48;11.15;;;6.82;;
60432;SDS011;46286;48.098;11.590;2022-08-19T12:08:14;10.20;;;6.60;;
60432;SDS011;46286;48.098;11.590;2022-08-19T12:10:41;9.05;;;5.85;;
60432;SDS011;46286;48.098;11.590;2022-08-19T12:13:08;8.77;;;5.95;;
60432;SDS011;46286;48.098;11.590;2022-08-19T12:15:35;7.85;;;5.28;;
60432;SDS011;46286;48.098;11.590;2022-08-19T12:18:02;6.78;;;4.57;;
60432;SDS011;46286;48.098;11.590;2022-08-19T12:20:28;5.55;;;3.58;;
60432;SDS011;46286;48.098;11.590;2022-08-19T12:22:54;4.88;;;2.90;;
60432;SDS011;46286;48.098;11.590;2022-08-19T12:25:20;4.45;;;2.70;;
60432;SDS011;46286;48.098;11.590;2022-08-19T12:27:46;3.58;;;2.25;;
60432;SDS011;46286;48.098;11.590;2022-08-19T12:30:12;2.95;;;2.30;;
60432;SDS011;46286;48.098;11.590;2022-08-19T12:32:38;4.05;;;2.25;;
60432;SDS011;46286;48.098;11.590;2022-08-19T12:35:05;4.57;;;2.15;;
60432;SDS011;46286;48.098;11.590;2022-08-19T12:37:32;4.15;;;2.83;;
60432;SDS011;46286;48.098;11.590;2022-08-19T12:39:57;2.90;;;2.08;;
60432;SDS011;46286;48.098;11.590;2022-08-19T12:42:23;2.70;;;2.00;;
60432;SDS011;46286;48.098;11.590;2022-08-19T12:44:49;4.97;;;2.10;;
60432;SDS011;46286;48.098;11.590;2022-08-19T12:47:17;3.10;;;1.90;;
60432;SDS011;46286;48.098;11.590;2022-08-19T12:49:42;2.83;;;2.05;;
60432;SDS011;46286;48.098;11.590;2022-08-19T12:52:09;5.18;;;2.17;;
60432;SDS011;46286;48.098;11.590;2022-08-19T12:54:35;4.25;;;2.10;;
60432;SDS011;46286;48.098;11.590;2022-08-19T12:57:06;3.33;;;2.13;;
60432;SDS011;46286;48.098;11.590;2022-08-19T12:59:33;3.10;;;2.05;;
60432;SDS011;46286;48.098;11.590;2022-08-19T13:02:02;2.92;;;2.00;;
60432;SDS011;46286;48.098;11.590;2022-08-19T13:04:32;3.30;;;2.10;;
60432;SDS011;46286;48.098;11.590;2022-08-19T13:07:01;2.90;;;1.98;;
60432;SDS011;46286;48.098;11.590;2022-08-19T13:09:27;2.60;;;1.98;;
60432;SDS011;46286;48.098;11.590;2022-08-19T13:11:53;2.75;;;2.08;;
60432;SDS011;46286;48.098;11.590;2022-08-19T13:14:19;3.20;;;2.00;;
60432;SDS011;46286;48.098;11.590;2022-08-19T13:16:44;2.28;;;1.90;;
60432;SDS011;46286;48.098;11.590;2022-08-19T13:19:09;3.45;;;1.80;;
60432;SDS011;46286;48.098;11.590;2022-08-19T13:21:37;3.42;;;1.90;;
60432;SDS011;46286;48.098;11.590;2022-08-19T13:24:03;4.30;;;2.08;;
60432;SDS011;46286;48.098;11.590;2022-08-19T13:26:29;2.55;;;2.00;;
60432;SDS011;46286;48.098;11.590;2022-08-19T13:28:54;2.90;;;2.20;;
60432;SDS011;46286;48.098;11.590;2022-08-19T13:31:39;2.63;;;1.90;;
60432;SDS011;46286;48.098;11.590;2022-08-19T13:34:32;2.67;;;1.88;;
60432;SDS011;46286;48.098;11.590;2022-08-19T13:37:00;2.20;;;1.80;;
60432;SDS011;46286;48.098;11.590;2022-08-19T13:39:31;3.10;;;1.90;;
60432;SDS011;46286;48.098;11.590;2022-08-19T13:41:57;4.65;;;2.40;;
60432;SDS011;46286;48.098;11.590;2022-08-19T13:44:25;4.22;;;1.90;;
60432;SDS011;46286;48.098;11.590;2022-08-19T13:46:51;2.72;;;2.10;;
60432;SDS011;46286;48.098;11.590;2022-08-19T13:49:17;3.45;;;2.13;;
60432;SDS011;46286;48.098;11.590;2022-08-19T13:51:43;3.72;;;2.20;;
60432;SDS011;46286;48.098;11.590;2022-08-19T13:54:10;3.65;;;2.50;;
60432;SDS011;46286;48.098;11.590;2022-08-19T13:56:40;3.42;;;2.33;;
60432;SDS011;46286;48.098;11.590;2022-08-19T13:59:07;3.53;;;2.45;;
60432;SDS011;46286;48.098;11.590;2022-08-19T14:01:33;3.08;;;2.50;;
60432;SDS011;46286;48.098;11.590;2022-08-19T14:03:59;4.97;;;2.42;;
60432;SDS011;46286;48.098;11.590;2022-08-19T14:06:25;3.03;;;2.15;;
60432;SDS011;46286;48.098;11.590;2022-08-19T14:08:51;3.35;;;2.42;;
60432;SDS011;46286;48.098;11.590;2022-08-19T14:11:17;4.45;;;2.88;;
60432;SDS011;46286;48.098;11.590;2022-08-19T14:13:43;4.45;;;2.80;;
60432;SDS011;46286;48.098;11.590;2022-08-19T14:16:12;4.93;;;3.15;;
60432;SDS011;46286;48.098;11.590;2022-08-19T14:18:39;5.88;;;3.15;;
60432;SDS011;46286;48.098;11.590;2022-08-19T14:21:05;5.10;;;3.30;;
60432;SDS011;46286;48.098;11.590;2022-08-19T14:23:32;4.20;;;2.95;;
60432;SDS011;46286;48.098;11.590;2022-08-19T14:26:08;5.80;;;3.20;;
60432;SDS011;46286;48.098;11.590;2022-08-19T14:28:37;5.57;;;3.42;;
60432;SDS011;46286;48.098;11.590;2022-08-19T14:31:05;4.75;;;3.22;;
60432;SDS011;46286;48.098;11.590;2022-08-19T14:33:31;5.65;;;3.25;;
60432;SDS011;46286;48.098;11.590;2022-08-19T14:35:57;4.40;;;3.30;;
60432;SDS011;46286;48.098;11.590;2022-08-19T14:38:23;5.43;;;3.50;;
60432;SDS011;46286;48.098;11.590;2022-08-19T14:40:48;4.10;;;3.08;;
60432;SDS011;46286;48.098;11.590;2022-08-19T14:43:14;4.78;;;3.03;;